createdAt,value
2023-05-17T00:00:41.713Z,1.80
2023-05-17T00:03:11.270Z,1.70
2023-05-17T00:05:39.698Z,2.17
2023-05-17T00:08:09.146Z,1.90
2023-05-17T00:10:38.010Z,1.92
2023-05-17T00:13:06.465Z,1.80
2023-05-17T00:15:35.693Z,1.67
2023-05-17T00:18:05.872Z,1.88
2023-05-17T00:20:35.192Z,1.60
2023-05-17T00:23:04.110Z,1.73
2023-05-17T00:25:33.544Z,2.03
2023-05-17T00:28:01.965Z,1.83
2023-05-17T00:30:32.023Z,1.80
2023-05-17T00:33:00.963Z,1.70
2023-05-17T00:35:31.246Z,1.75
2023-05-17T00:38:00.253Z,1.98
2023-05-17T00:40:28.632Z,1.70
2023-05-17T00:42:57.409Z,1.90
2023-05-17T00:45:26.165Z,1.75
2023-05-17T00:47:55.341Z,1.88
2023-05-17T00:50:24.114Z,1.75
2023-05-17T00:52:54.476Z,1.85
2023-05-17T00:55:23.582Z,1.50
2023-05-17T00:57:53.593Z,2.03
2023-05-17T01:00:22.120Z,1.77
2023-05-17T01:02:53.014Z,1.60
2023-05-17T01:05:22.012Z,1.90
2023-05-17T01:07:50.385Z,1.65
2023-05-17T01:10:21.801Z,1.60
2023-05-17T01:13:04.729Z,1.98
2023-05-17T01:15:35.871Z,1.98
2023-05-17T01:18:13.919Z,1.52
2023-05-17T01:20:45.508Z,1.48
2023-05-17T01:23:37.027Z,1.80
2023-05-17T01:26:12.400Z,1.50
2023-05-17T01:28:44.593Z,1.58
2023-05-17T01:31:14.322Z,1.58
2023-05-17T01:33:44.030Z,1.58
2023-05-17T01:36:12.964Z,1.73
2023-05-17T01:38:41.392Z,1.80
2023-05-17T01:41:17.907Z,1.70
2023-05-17T01:43:52.430Z,1.90
2023-05-17T01:46:28.197Z,1.63
2023-05-17T01:49:07.293Z,2.10
2023-05-17T01:51:40.895Z,1.63
2023-05-17T01:54:12.667Z,1.73
2023-05-17T01:56:45.635Z,1.40
2023-05-17T01:59:21.405Z,1.30
2023-05-17T02:01:52.111Z,1.70
2023-05-17T02:04:20.865Z,1.27
2023-05-17T02:06:50.349Z,1.73
2023-05-17T02:09:19.269Z,1.70
2023-05-17T02:11:47.699Z,1.55
2023-05-17T02:14:18.680Z,1.58
2023-05-17T02:16:47.244Z,1.38
2023-05-17T02:19:16.056Z,1.88
2023-05-17T02:21:44.458Z,1.55
2023-05-17T02:24:13.300Z,1.60
2023-05-17T02:26:43.358Z,1.50
2023-05-17T02:29:12.431Z,1.50
2023-05-17T02:31:42.623Z,1.65
2023-05-17T02:34:12.465Z,1.65
2023-05-17T02:36:41.412Z,6.60
2023-05-17T02:39:09.935Z,2.22
2023-05-17T02:41:39.861Z,1.67
2023-05-17T02:44:08.332Z,2.08
2023-05-17T02:46:38.668Z,1.70
2023-05-17T02:49:08.483Z,2.08
2023-05-17T02:51:37.793Z,2.97
2023-05-17T02:54:06.214Z,2.10
2023-05-17T02:56:34.962Z,1.90
2023-05-17T02:59:03.558Z,1.50
2023-05-17T03:01:32.729Z,1.40
2023-05-17T03:04:01.994Z,1.33
2023-05-17T03:06:32.373Z,1.40
2023-05-17T03:09:01.447Z,1.48
2023-05-17T03:11:30.353Z,1.25
2023-05-17T03:14:08.079Z,1.55
2023-05-17T03:16:36.478Z,1.30
2023-05-17T03:19:05.206Z,1.38
2023-05-17T03:21:36.473Z,1.25
2023-05-17T03:24:06.877Z,1.40
2023-05-17T03:26:37.326Z,2.03
2023-05-17T03:29:06.926Z,1.38
2023-05-17T03:31:36.155Z,1.20
2023-05-17T03:34:04.768Z,1.50
2023-05-17T03:36:36.451Z,1.10
2023-05-17T03:39:05.326Z,1.55
2023-05-17T03:41:33.994Z,1.38
2023-05-17T03:44:03.229Z,1.20
2023-05-17T03:46:32.660Z,1.10
2023-05-17T03:49:01.646Z,1.15
2023-05-17T03:51:31.291Z,1.25
2023-05-17T03:54:03.626Z,1.20
2023-05-17T03:56:33.404Z,1.40
2023-05-17T03:59:01.786Z,1.30
2023-05-17T04:01:31.058Z,1.58
2023-05-17T04:04:01.311Z,1.25
2023-05-17T04:06:30.558Z,1.02
2023-05-17T04:09:00.143Z,1.20
2023-05-17T04:11:30.007Z,1.60
2023-05-17T04:14:00.481Z,1.33
2023-05-17T04:16:29.040Z,1.50
2023-05-17T04:18:58.186Z,1.05
2023-05-17T04:21:29.913Z,1.38
2023-05-17T04:23:59.148Z,1.20
2023-05-17T04:26:30.884Z,1.40
2023-05-17T04:29:00.719Z,1.00
2023-05-17T04:31:29.517Z,1.33
2023-05-17T04:33:57.925Z,1.30
2023-05-17T04:36:27.871Z,1.08
2023-05-17T04:38:56.681Z,1.13
2023-05-17T04:41:32.042Z,1.05
2023-05-17T04:44:01.576Z,1.30
2023-05-17T04:46:35.723Z,1.20
2023-05-17T04:49:04.375Z,1.20
2023-05-17T04:51:34.935Z,1.13
2023-05-17T04:54:07.310Z,1.02
2023-05-17T04:56:37.949Z,1.55
2023-05-17T04:59:11.726Z,1.42
2023-05-17T05:01:41.101Z,1.33
2023-05-17T05:04:09.954Z,1.25
2023-05-17T05:06:43.543Z,1.58
2023-05-17T05:09:12.486Z,1.50
2023-05-17T05:11:43.122Z,1.10
2023-05-17T05:14:12.163Z,1.05
2023-05-17T05:16:40.941Z,1.30
2023-05-17T05:19:10.378Z,1.63
2023-05-17T05:21:39.273Z,1.50
2023-05-17T05:24:09.616Z,1.20
2023-05-17T05:26:38.130Z,1.33
2023-05-17T05:29:09.635Z,1.35
2023-05-17T05:31:38.151Z,1.77
2023-05-17T05:34:08.442Z,1.52
2023-05-17T05:36:37.721Z,1.50
2023-05-17T05:39:07.849Z,1.55
2023-05-17T05:41:38.470Z,1.52
2023-05-17T05:44:08.906Z,1.50
2023-05-17T05:46:38.127Z,1.33
2023-05-17T05:49:07.703Z,1.42
2023-05-17T05:51:37.167Z,1.70
2023-05-17T05:54:05.572Z,1.10
2023-05-17T05:56:33.968Z,1.20
2023-05-17T05:59:02.671Z,1.20
2023-05-17T06:01:32.554Z,1.48
2023-05-17T06:04:01.877Z,1.63
2023-05-17T06:06:30.430Z,1.40
2023-05-17T06:08:59.925Z,2.00
2023-05-17T06:11:28.459Z,1.38
2023-05-17T06:13:59.066Z,1.20
2023-05-17T06:16:27.575Z,1.35
2023-05-17T06:18:57.869Z,1.42
2023-05-17T06:21:27.424Z,1.42
2023-05-17T06:23:55.861Z,1.70
2023-05-17T06:26:27.428Z,1.70
2023-05-17T06:28:55.760Z,1.83
2023-05-17T06:31:24.633Z,1.48
2023-05-17T06:33:53.320Z,1.63
2023-05-17T06:36:24.986Z,1.65
2023-05-17T06:38:53.888Z,1.55
2023-05-17T06:41:23.217Z,1.73
2023-05-17T06:43:52.523Z,1.60
2023-05-17T06:46:22.127Z,1.40
2023-05-17T06:48:51.523Z,1.60
2023-05-17T06:51:21.002Z,1.25
2023-05-17T06:53:52.698Z,1.38
2023-05-17T06:56:21.126Z,1.50
2023-05-17T06:58:49.649Z,1.42
2023-05-17T07:01:18.790Z,1.70
2023-05-17T07:03:48.877Z,1.58
2023-05-17T07:06:17.319Z,1.30
2023-05-17T07:08:54.376Z,1.63
2023-05-17T07:11:31.943Z,1.33
2023-05-17T07:14:01.381Z,1.80
2023-05-17T07:16:29.762Z,1.70
2023-05-17T07:18:58.817Z,1.10
2023-05-17T07:21:27.261Z,1.80
2023-05-17T07:23:57.029Z,1.33
2023-05-17T07:26:25.674Z,1.35
2023-05-17T07:28:54.990Z,1.63
2023-05-17T07:31:24.335Z,1.90
2023-05-17T07:33:53.814Z,1.85
2023-05-17T07:36:23.849Z,1.40
2023-05-17T07:38:52.482Z,1.30
2023-05-17T07:41:23.318Z,1.85
2023-05-17T07:43:53.102Z,1.35
2023-05-17T07:46:21.480Z,1.40
2023-05-17T07:48:50.598Z,1.75
2023-05-17T07:51:19.084Z,1.65
2023-05-17T07:53:48.272Z,1.60
2023-05-17T07:56:16.614Z,1.80
2023-05-17T07:58:46.650Z,1.70
2023-05-17T08:01:16.070Z,1.42
2023-05-17T08:03:47.998Z,1.48
2023-05-17T08:06:18.636Z,1.50
2023-05-17T08:08:47.066Z,1.60
2023-05-17T08:11:17.286Z,1.73
2023-05-17T08:13:49.555Z,1.80
2023-05-17T08:16:18.968Z,2.03
2023-05-17T08:18:47.562Z,1.40
2023-05-17T08:21:17.657Z,1.92
2023-05-17T08:23:46.678Z,2.20
2023-05-17T08:26:15.239Z,1.48
2023-05-17T08:28:44.397Z,1.70
2023-05-17T08:31:14.151Z,1.52
2023-05-17T08:33:43.285Z,1.50
2023-05-17T08:36:11.726Z,1.38
2023-05-17T08:38:41.684Z,1.70
2023-05-17T08:41:11.221Z,1.55
2023-05-17T08:43:40.110Z,1.60
2023-05-17T08:46:11.504Z,1.83
2023-05-17T08:48:43.779Z,1.65
2023-05-17T08:51:13.421Z,1.50
2023-05-17T08:53:42.677Z,1.77
2023-05-17T08:56:13.716Z,1.70
2023-05-17T08:58:55.532Z,1.33
2023-05-17T09:01:28.386Z,1.58
2023-05-17T09:04:01.158Z,1.58
2023-05-17T09:06:32.934Z,1.65
2023-05-17T09:09:01.862Z,1.92
2023-05-17T09:11:32.973Z,2.03
2023-05-17T09:14:02.509Z,2.00
2023-05-17T09:16:31.695Z,1.80
2023-05-17T09:19:02.415Z,1.90
2023-05-17T09:21:43.981Z,1.70
2023-05-17T09:24:12.780Z,1.90
2023-05-17T09:26:43.129Z,1.77
2023-05-17T09:29:13.899Z,2.13
2023-05-17T09:31:43.550Z,2.03
2023-05-17T09:34:14.844Z,2.20
2023-05-17T09:36:44.579Z,1.75
2023-05-17T09:39:15.593Z,1.75
2023-05-17T09:41:46.983Z,1.58
2023-05-17T09:44:17.927Z,1.80
2023-05-17T09:46:48.016Z,2.05
2023-05-17T09:49:19.193Z,2.08
2023-05-17T09:51:49.813Z,1.92
2023-05-17T09:57:10.041Z,2.28
2023-05-17T09:59:38.985Z,2.50
2023-05-17T10:02:15.096Z,2.47
2023-05-17T10:04:46.287Z,2.67
2023-05-17T10:07:15.778Z,2.50
2023-05-17T10:09:45.874Z,3.00
2023-05-17T10:12:18.447Z,2.50
2023-05-17T10:14:48.152Z,2.47
2023-05-17T10:17:18.422Z,2.63
2023-05-17T10:19:48.772Z,2.50
2023-05-17T10:22:23.091Z,2.95
2023-05-17T10:24:52.665Z,3.13
2023-05-17T10:27:23.448Z,2.90
2023-05-17T10:29:54.696Z,2.80
2023-05-17T10:32:27.540Z,2.85
2023-05-17T10:35:10.159Z,3.40
2023-05-17T10:37:41.675Z,2.70
2023-05-17T10:40:13.996Z,3.47
2023-05-17T10:42:48.132Z,2.72
2023-05-17T10:45:17.556Z,2.95
2023-05-17T10:47:47.380Z,2.90
2023-05-17T10:50:23.464Z,3.03
2023-05-17T10:52:54.163Z,2.60
2023-05-17T10:55:26.157Z,2.88
2023-05-17T10:58:18.350Z,2.80
2023-05-17T11:00:50.087Z,2.40
2023-05-17T11:03:21.016Z,2.28
2023-05-17T11:06:25.356Z,2.30
2023-05-17T11:09:09.465Z,2.30
2023-05-17T11:11:38.334Z,2.53
2023-05-17T11:14:08.549Z,2.40
2023-05-17T11:16:39.075Z,2.63
2023-05-17T11:19:09.356Z,2.38
2023-05-17T11:21:47.276Z,2.78
2023-05-17T11:24:22.286Z,3.03
2023-05-17T11:26:52.117Z,2.80
2023-05-17T11:29:20.577Z,2.63
2023-05-17T11:31:53.747Z,2.72
2023-05-17T11:34:25.609Z,2.85
2023-05-17T11:36:58.136Z,2.92
2023-05-17T11:39:26.974Z,2.95
2023-05-17T11:41:57.648Z,3.05
2023-05-17T11:44:30.898Z,3.10
2023-05-17T11:47:04.906Z,3.08
2023-05-17T11:49:36.735Z,3.47
2023-05-17T11:52:08.822Z,3.17
2023-05-17T11:54:43.306Z,3.08
2023-05-17T11:57:12.838Z,2.80
2023-05-17T11:59:43.631Z,3.40
2023-05-17T12:02:27.012Z,3.15
2023-05-17T12:04:57.305Z,3.40
2023-05-17T12:07:28.140Z,3.40
2023-05-17T12:09:57.327Z,4.03
2023-05-17T12:12:27.172Z,3.10
2023-05-17T12:14:56.538Z,3.40
2023-05-17T12:17:33.236Z,3.50
2023-05-17T12:20:08.391Z,3.38
2023-05-17T12:25:29.805Z,3.80
2023-05-17T12:28:17.821Z,3.10
2023-05-17T12:30:47.011Z,3.35
2023-05-17T12:33:16.780Z,3.55
2023-05-17T12:35:45.946Z,3.20
2023-05-17T12:38:15.845Z,3.70
2023-05-17T12:40:47.262Z,3.63
2023-05-17T12:43:16.465Z,3.20
2023-05-17T12:45:45.246Z,3.15
2023-05-17T12:48:13.734Z,3.10
2023-05-17T12:50:45.805Z,2.97
2023-05-17T12:53:14.267Z,3.15
2023-05-17T12:55:42.825Z,3.47
2023-05-17T12:58:12.949Z,3.00
2023-05-17T13:00:42.206Z,4.07
2023-05-17T13:03:11.677Z,3.17
2023-05-17T13:05:44.851Z,3.28
2023-05-17T13:08:22.841Z,3.63
2023-05-17T13:10:52.086Z,3.10
2023-05-17T13:13:23.033Z,3.00
2023-05-17T13:15:51.796Z,3.47
2023-05-17T13:18:21.334Z,3.15
2023-05-17T13:20:51.884Z,3.50
2023-05-17T13:23:20.728Z,3.30
2023-05-17T13:25:49.157Z,3.30
2023-05-17T13:28:19.086Z,3.08
2023-05-17T13:30:52.113Z,3.13
2023-05-17T13:33:21.136Z,3.33
2023-05-17T13:35:49.687Z,3.67
2023-05-17T13:38:18.537Z,3.75
2023-05-17T13:40:46.967Z,3.38
2023-05-17T13:43:16.507Z,3.50
2023-05-17T13:45:44.952Z,3.33
2023-05-17T13:48:15.198Z,3.28
2023-05-17T13:50:44.260Z,3.55
2023-05-17T13:53:13.432Z,3.97
2023-05-17T13:55:41.772Z,3.30
2023-05-17T13:58:11.696Z,3.78
2023-05-17T14:00:42.638Z,3.42
2023-05-17T14:03:12.202Z,3.28
2023-05-17T14:05:43.081Z,3.50
2023-05-17T14:08:12.772Z,3.45
2023-05-17T14:10:41.140Z,3.60
2023-05-17T14:13:09.903Z,3.88
2023-05-17T14:15:39.518Z,3.20
2023-05-17T14:18:09.218Z,3.50
2023-05-17T14:20:37.778Z,4.15
2023-05-17T14:23:08.541Z,3.83
2023-05-17T14:25:36.953Z,3.45
2023-05-17T14:28:06.367Z,3.28
2023-05-17T14:30:34.714Z,3.53
2023-05-17T14:33:03.812Z,3.50
2023-05-17T14:35:32.308Z,3.35
2023-05-17T14:38:01.119Z,3.33
2023-05-17T14:40:31.718Z,3.75
2023-05-17T14:43:00.597Z,4.10
2023-05-17T14:45:29.581Z,3.40
2023-05-17T14:47:57.904Z,3.33
2023-05-17T14:50:26.921Z,3.65
2023-05-17T14:52:55.646Z,3.58
2023-05-17T14:55:27.314Z,3.38
2023-05-17T14:57:57.913Z,3.60
2023-05-17T15:00:27.486Z,3.70
2023-05-17T15:02:56.023Z,3.55
2023-05-17T15:05:25.083Z,3.83
2023-05-17T15:07:55.361Z,3.55
2023-05-17T15:10:23.979Z,4.07
2023-05-17T15:12:53.592Z,3.65
2023-05-17T15:15:23.285Z,3.95
2023-05-17T15:17:52.478Z,3.85
2023-05-17T15:20:21.055Z,3.55
2023-05-17T15:22:50.014Z,3.72
2023-05-17T15:25:18.840Z,3.83
2023-05-17T15:27:49.097Z,3.55
2023-05-17T15:30:18.759Z,3.35
2023-05-17T15:32:49.022Z,3.30
2023-05-17T15:35:17.459Z,3.30
2023-05-17T15:37:48.288Z,3.50
2023-05-17T15:40:17.853Z,3.83
2023-05-17T15:42:46.507Z,3.20
2023-05-17T15:45:15.241Z,3.50
2023-05-17T15:47:44.057Z,3.25
2023-05-17T15:50:14.930Z,3.40
2023-05-17T15:52:43.702Z,3.10
2023-05-17T15:55:12.827Z,3.45
2023-05-17T15:57:42.306Z,3.38
2023-05-17T16:00:11.862Z,3.30
2023-05-17T16:02:41.038Z,3.00
2023-05-17T16:05:10.759Z,3.15
2023-05-17T16:07:40.522Z,3.33
2023-05-17T16:10:11.179Z,3.00
2023-05-17T16:12:40.065Z,3.67
2023-05-17T16:15:10.792Z,3.10
2023-05-17T16:17:39.301Z,3.33
2023-05-17T16:20:09.097Z,3.30
2023-05-17T16:22:38.358Z,3.10
2023-05-17T16:25:08.817Z,2.92
2023-05-17T16:27:38.195Z,3.13
2023-05-17T16:30:08.178Z,3.75
2023-05-17T16:32:37.396Z,3.30
2023-05-17T16:35:06.508Z,2.88
2023-05-17T16:37:35.849Z,3.10
2023-05-17T16:40:04.565Z,3.53
2023-05-17T16:42:34.711Z,3.60
2023-05-17T16:45:04.907Z,3.25
2023-05-17T16:47:34.925Z,3.33
2023-05-17T16:50:05.083Z,2.97
2023-05-17T16:52:34.671Z,3.80
2023-05-17T16:55:04.110Z,3.63
2023-05-17T16:57:34.794Z,3.55
2023-05-17T17:00:03.855Z,3.30
2023-05-17T17:02:32.808Z,3.63
2023-05-17T17:05:01.237Z,3.22
2023-05-17T17:07:30.402Z,3.17
2023-05-17T17:09:58.815Z,3.40
2023-05-17T17:12:28.254Z,3.38
2023-05-17T17:14:58.718Z,3.53
2023-05-17T17:17:27.996Z,3.53
2023-05-17T17:19:56.436Z,3.30
2023-05-17T17:22:24.944Z,3.28
2023-05-17T17:24:53.519Z,3.53
2023-05-17T17:27:22.260Z,3.50
2023-05-17T17:29:50.603Z,3.28
2023-05-17T17:32:21.298Z,3.00
2023-05-17T17:34:49.642Z,3.17
2023-05-17T17:37:18.795Z,3.50
2023-05-17T17:39:47.129Z,3.17
2023-05-17T17:42:15.647Z,2.90
2023-05-17T17:44:43.962Z,3.00
2023-05-17T17:47:13.457Z,2.70
2023-05-17T17:49:43.292Z,3.22
2023-05-17T17:52:12.117Z,2.85
2023-05-17T17:54:40.564Z,3.08
2023-05-17T17:57:10.046Z,3.28
2023-05-17T17:59:39.349Z,3.22
2023-05-17T18:02:08.079Z,3.42
2023-05-17T18:04:37.440Z,3.20
2023-05-17T18:07:07.808Z,3.10
2023-05-17T18:09:36.756Z,3.33
2023-05-17T18:12:05.974Z,2.90
2023-05-17T18:14:34.809Z,3.55
2023-05-17T18:17:04.843Z,3.38
2023-05-17T18:19:33.206Z,3.30
2023-05-17T18:22:02.554Z,3.00
2023-05-17T18:24:32.436Z,3.20
2023-05-17T18:27:01.357Z,3.17
2023-05-17T18:29:29.683Z,3.33
2023-05-17T18:32:00.010Z,2.90
2023-05-17T18:34:28.637Z,3.33
2023-05-17T18:36:58.412Z,3.03
2023-05-17T18:39:26.816Z,3.28
2023-05-17T18:41:56.550Z,3.22
2023-05-17T18:44:24.909Z,3.08
2023-05-17T18:46:53.923Z,3.40
2023-05-17T18:49:23.396Z,3.55
2023-05-17T18:51:51.768Z,3.40
2023-05-17T18:54:21.244Z,3.45
2023-05-17T18:56:49.598Z,3.10
2023-05-17T18:59:20.727Z,3.22
2023-05-17T19:01:49.044Z,3.45
2023-05-17T19:04:18.212Z,3.50
2023-05-17T19:06:47.085Z,3.42
2023-05-17T19:09:16.473Z,3.20
2023-05-17T19:11:44.822Z,3.50
2023-05-17T19:14:15.190Z,3.60
2023-05-17T19:16:45.472Z,3.17
2023-05-17T19:19:13.936Z,3.17
2023-05-17T19:21:42.292Z,3.40
2023-05-17T19:24:10.608Z,3.28
2023-05-17T19:26:39.499Z,3.50
2023-05-17T19:29:08.802Z,4.07
2023-05-17T19:31:37.242Z,3.55
2023-05-17T19:34:07.431Z,3.70
2023-05-17T19:36:36.228Z,3.33
2023-05-17T19:39:04.631Z,3.70
2023-05-17T19:41:34.210Z,3.40
2023-05-17T19:44:03.081Z,3.95
2023-05-17T19:46:31.452Z,3.50
2023-05-17T19:49:00.636Z,3.42
2023-05-17T19:51:30.295Z,4.07
2023-05-17T19:53:59.240Z,3.65
2023-05-17T19:56:27.661Z,3.72
2023-05-17T19:58:57.039Z,3.60
2023-05-17T20:01:25.392Z,3.55
2023-05-17T20:03:54.778Z,4.15
2023-05-17T20:06:23.251Z,4.07
2023-05-17T20:08:53.307Z,3.92
2023-05-17T20:11:21.667Z,4.07
2023-05-17T20:13:50.597Z,3.95
2023-05-17T20:16:19.400Z,4.40
2023-05-17T20:18:48.080Z,4.60
2023-05-17T20:21:20.215Z,4.30
2023-05-17T20:23:48.593Z,4.22
2023-05-17T20:29:12.605Z,4.00
2023-05-17T20:31:41.070Z,3.88
2023-05-17T20:34:09.428Z,4.53
2023-05-17T20:36:38.777Z,4.32
2023-05-17T20:39:07.276Z,4.30
2023-05-17T20:41:37.607Z,4.88
2023-05-17T20:44:06.283Z,4.57
2023-05-17T20:46:35.931Z,4.20
2023-05-17T20:49:04.730Z,4.50
2023-05-17T20:51:33.578Z,3.90
2023-05-17T20:54:02.354Z,4.32
2023-05-17T20:56:31.088Z,3.75
2023-05-17T20:59:01.709Z,4.05
2023-05-17T21:01:30.203Z,4.65
2023-05-17T21:03:59.715Z,4.53
2023-05-17T21:06:30.946Z,4.35
2023-05-17T21:09:02.466Z,4.95
2023-05-17T21:11:31.124Z,5.78
2023-05-17T21:14:02.049Z,5.50
2023-05-17T21:16:30.798Z,5.95
2023-05-17T21:19:00.273Z,6.15
2023-05-17T21:21:28.814Z,6.43
2023-05-17T21:23:57.572Z,6.03
2023-05-17T21:29:02.575Z,4.68
2023-05-17T21:31:32.497Z,5.03
2023-05-17T21:34:00.993Z,4.85
2023-05-17T21:36:29.766Z,4.47
2023-05-17T21:38:58.108Z,4.55
2023-05-17T21:41:27.246Z,5.07
2023-05-17T21:43:55.707Z,4.95
2023-05-17T21:46:26.309Z,5.25
2023-05-17T21:48:54.704Z,5.10
2023-05-17T21:51:23.410Z,4.90
2023-05-17T21:53:52.681Z,5.32
2023-05-17T21:56:21.810Z,4.63
2023-05-17T21:58:52.317Z,4.95
2023-05-17T22:01:24.144Z,5.15
2023-05-17T22:03:55.570Z,5.05
2023-05-17T22:06:23.971Z,4.93
2023-05-17T22:08:53.161Z,4.95
2023-05-17T22:11:22.833Z,4.90
2023-05-17T22:13:52.234Z,4.72
2023-05-17T22:16:22.463Z,5.07
2023-05-17T22:18:52.800Z,4.45
2023-05-17T22:21:22.663Z,4.82
2023-05-17T22:23:51.574Z,4.80
2023-05-17T22:26:20.103Z,4.65
2023-05-17T22:28:49.498Z,4.50
2023-05-17T22:31:18.840Z,4.57
2023-05-17T22:33:47.822Z,4.65
2023-05-17T22:36:17.720Z,4.45
2023-05-17T22:38:47.976Z,4.35
2023-05-17T22:41:16.317Z,4.78
2023-05-17T22:43:45.454Z,4.43
2023-05-17T22:46:14.220Z,4.43
2023-05-17T22:48:43.214Z,4.68
2023-05-17T22:51:12.706Z,4.80
2023-05-17T22:53:41.493Z,5.18
2023-05-17T22:56:11.405Z,4.43
2023-05-17T22:58:41.065Z,4.82
2023-05-17T23:01:10.610Z,4.28
2023-05-17T23:03:40.076Z,4.50
2023-05-17T23:06:09.547Z,4.50
2023-05-17T23:08:39.013Z,4.10
2023-05-17T23:11:09.001Z,4.43
2023-05-17T23:13:38.674Z,4.43
2023-05-17T23:16:08.303Z,4.25
2023-05-17T23:18:38.515Z,4.53
2023-05-17T23:21:07.069Z,4.63
2023-05-17T23:23:38.355Z,4.78
2023-05-17T23:26:07.316Z,4.40
2023-05-17T23:28:38.131Z,4.50
2023-05-17T23:31:08.968Z,3.92
2023-05-17T23:33:37.389Z,4.50
2023-05-17T23:36:07.238Z,4.20
2023-05-17T23:38:35.619Z,4.07
2023-05-17T23:41:05.974Z,3.97
2023-05-17T23:43:35.815Z,4.70
2023-05-17T23:46:05.466Z,4.50
2023-05-17T23:48:35.164Z,4.30
2023-05-17T23:51:05.192Z,4.25
2023-05-17T23:53:34.384Z,4.03
2023-05-17T23:56:03.097Z,4.40
2023-05-17T23:58:32.405Z,3.95
